Terminal Aerodrome Forecast
Issued by NWS

Home | Current Version | Previous Version | Text Only | Print | Product List | Glossary Off
Versions: 1 2 3 4 5 6 7 8 9 10 11 12 13 14 15 16 17 18 19 20 21 22 23 24 25 26 27 28 29 30 31 32 33 34 35 36 37 38

215
FTUS45 KGGW 101736
TAFOLF
TAF
KOLF 101736Z 1018/1118 08015KT 4SM -SN OVC020
      TEMPO 1018/1021 1SM -SN BKN015
     FM102200 08010KT 3SM -SN OVC015
     FM110000 07010KT 3/4SM -SN OVC009
     FM110500 07009KT 1SM -SN OVC009
     FM110600 05005KT 2SM -SN OVC007
     FM110800 35005KT 3SM -SN BKN010
     FM110900 26004KT P6SM BKN015=

USA.gov is the U.S. government's official web portal to all federal, state and local government web resources and services.